sensor_id;sensor_type;location;lat;lon;timestamp;pressure;altitude;pressure_sealevel;temperature;humidity
79465;BME280;68932;47.410;8.232;2023-04-08T00:00:09;97051.33;;;6.93;72.35
79465;BME280;68932;47.410;8.232;2023-04-08T00:02:36;97049.06;;;6.93;72.16
79465;BME280;68932;47.410;8.232;2023-04-08T00:05:04;97050.96;;;6.93;72.02
79465;BME280;68932;47.410;8.232;2023-04-08T00:07:31;97048.20;;;6.93;72.06
79465;BME280;68932;47.410;8.232;2023-04-08T00:09:58;97047.53;;;6.92;72.05
79465;BME280;68932;47.410;8.232;2023-04-08T00:12:25;97047.63;;;6.93;72.02
79465;BME280;68932;47.410;8.232;2023-04-08T00:14:52;97047.93;;;6.94;72.03
79465;BME280;68932;47.410;8.232;2023-04-08T00:17:19;97049.15;;;6.94;72.20
79465;BME280;68932;47.410;8.232;2023-04-08T00:19:46;97047.73;;;6.95;72.06
79465;BME280;68932;47.410;8.232;2023-04-08T00:22:13;97046.90;;;6.94;71.94
79465;BME280;68932;47.410;8.232;2023-04-08T00:24:40;97040.08;;;6.95;72.16
79465;BME280;68932;47.410;8.232;2023-04-08T00:27:06;97042.21;;;6.97;72.28
79465;BME280;68932;47.410;8.232;2023-04-08T00:29:34;97044.52;;;7.00;72.33
79465;BME280;68932;47.410;8.232;2023-04-08T00:32:01;97042.70;;;7.01;72.16
79465;BME280;68932;47.410;8.232;2023-04-08T00:34:27;97043.05;;;6.98;72.08
79465;BME280;68932;47.410;8.232;2023-04-08T00:36:54;97040.34;;;6.96;72.09
79465;BME280;68932;47.410;8.232;2023-04-08T00:39:21;97041.48;;;6.94;72.11
79465;BME280;68932;47.410;8.232;2023-04-08T00:41:48;97039.98;;;6.93;72.22
79465;BME280;68932;47.410;8.232;2023-04-08T00:44:15;97042.80;;;6.92;72.24
79465;BME280;68932;47.410;8.232;2023-04-08T00:46:42;97041.49;;;6.91;72.12
79465;BME280;68932;47.410;8.232;2023-04-08T00:49:09;97042.14;;;6.88;72.22
79465;BME280;68932;47.410;8.232;2023-04-08T00:51:36;97042.59;;;6.90;72.36
79465;BME280;68932;47.410;8.232;2023-04-08T00:54:03;97041.24;;;6.92;72.36
79465;BME280;68932;47.410;8.232;2023-04-08T00:56:31;97036.83;;;6.93;72.49
79465;BME280;68932;47.410;8.232;2023-04-08T00:58:59;97032.95;;;6.94;72.46
79465;BME280;68932;47.410;8.232;2023-04-08T01:01:32;97030.68;;;6.94;72.33
79465;BME280;68932;47.410;8.232;2023-04-08T01:04:06;97031.65;;;6.92;72.38
79465;BME280;68932;47.410;8.232;2023-04-08T01:06:39;97035.52;;;6.92;72.39
79465;BME280;68932;47.410;8.232;2023-04-08T01:09:06;97036.14;;;6.90;72.20
79465;BME280;68932;47.410;8.232;2023-04-08T01:11:34;97036.96;;;6.87;72.36
79465;BME280;68932;47.410;8.232;2023-04-08T01:14:05;97033.00;;;6.87;72.46
79465;BME280;68932;47.410;8.232;2023-04-08T01:16:34;97035.38;;;6.88;72.52
79465;BME280;68932;47.410;8.232;2023-04-08T01:19:02;97034.98;;;6.89;72.47
79465;BME280;68932;47.410;8.232;2023-04-08T01:21:32;97035.98;;;6.90;72.57
79465;BME280;68932;47.410;8.232;2023-04-08T01:24:05;97038.56;;;6.90;72.55
79465;BME280;68932;47.410;8.232;2023-04-08T01:26:33;97038.40;;;6.90;72.57
79465;BME280;68932;47.410;8.232;2023-04-08T01:29:02;97037.55;;;6.90;72.56
79465;BME280;68932;47.410;8.232;2023-04-08T01:31:31;97038.23;;;6.90;72.50
79465;BME280;68932;47.410;8.232;2023-04-08T01:33:59;97041.10;;;6.92;72.34
79465;BME280;68932;47.410;8.232;2023-04-08T01:36:28;97040.83;;;6.93;72.60
79465;BME280;68932;47.410;8.232;2023-04-08T01:38:57;97039.52;;;6.95;72.57
79465;BME280;68932;47.410;8.232;2023-04-08T01:41:24;97036.55;;;6.95;72.65
79465;BME280;68932;47.410;8.232;2023-04-08T01:43:52;97032.75;;;6.91;72.41
79465;BME280;68932;47.410;8.232;2023-04-08T01:46:20;97035.23;;;6.87;72.56
79465;BME280;68932;47.410;8.232;2023-04-08T01:48:48;97033.67;;;6.83;72.65
79465;BME280;68932;47.410;8.232;2023-04-08T01:51:16;97035.05;;;6.80;72.67
79465;BME280;68932;47.410;8.232;2023-04-08T01:53:43;97032.46;;;6.76;72.63
79465;BME280;68932;47.410;8.232;2023-04-08T01:56:12;97031.14;;;6.71;72.54
79465;BME280;68932;47.410;8.232;2023-04-08T01:58:42;97030.80;;;6.67;72.66
79465;BME280;68932;47.410;8.232;2023-04-08T02:01:16;97036.41;;;6.67;72.83
79465;BME280;68932;47.410;8.232;2023-04-08T02:03:44;97032.66;;;6.68;72.89
79465;BME280;68932;47.410;8.232;2023-04-08T02:06:12;97037.90;;;6.65;72.63
79465;BME280;68932;47.410;8.232;2023-04-08T02:08:39;97038.78;;;6.61;72.70
79465;BME280;68932;47.410;8.232;2023-04-08T02:11:06;97039.59;;;6.58;72.89
79465;BME280;68932;47.410;8.232;2023-04-08T02:13:33;97041.65;;;6.55;72.88
79465;BME280;68932;47.410;8.232;2023-04-08T02:16:05;97045.40;;;6.54;72.92
79465;BME280;68932;47.410;8.232;2023-04-08T02:18:37;97045.80;;;6.52;73.02
79465;BME280;68932;47.410;8.232;2023-04-08T02:21:12;97043.63;;;6.50;73.30
79465;BME280;68932;47.410;8.232;2023-04-08T02:23:41;97050.88;;;6.52;73.31
79465;BME280;68932;47.410;8.232;2023-04-08T02:26:13;97050.05;;;6.55;73.46
79465;BME280;68932;47.410;8.232;2023-04-08T02:28:41;97045.52;;;6.58;73.39
79465;BME280;68932;47.410;8.232;2023-04-08T02:31:10;97049.27;;;6.60;73.43
79465;BME280;68932;47.410;8.232;2023-04-08T02:33:38;97045.86;;;6.59;73.40
79465;BME280;68932;47.410;8.232;2023-04-08T02:36:06;97048.30;;;6.59;73.27
79465;BME280;68932;47.410;8.232;2023-04-08T02:38:34;97043.02;;;6.60;73.36
79465;BME280;68932;47.410;8.232;2023-04-08T02:41:01;97046.42;;;6.61;73.56
79465;BME280;68932;47.410;8.232;2023-04-08T02:43:28;97047.17;;;6.64;73.36
79465;BME280;68932;47.410;8.232;2023-04-08T02:45:55;97049.86;;;6.66;73.29
79465;BME280;68932;47.410;8.232;2023-04-08T02:48:22;97047.75;;;6.66;73.28
79465;BME280;68932;47.410;8.232;2023-04-08T02:50:49;97046.20;;;6.66;73.28
79465;BME280;68932;47.410;8.232;2023-04-08T02:53:16;97045.91;;;6.65;73.10
79465;BME280;68932;47.410;8.232;2023-04-08T02:55:42;97046.69;;;6.63;73.15
79465;BME280;68932;47.410;8.232;2023-04-08T02:58:10;97046.06;;;6.62;73.13
79465;BME280;68932;47.410;8.232;2023-04-08T03:00:37;97048.11;;;6.63;73.28
79465;BME280;68932;47.410;8.232;2023-04-08T03:03:04;97050.98;;;6.64;73.44
79465;BME280;68932;47.410;8.232;2023-04-08T03:05:31;97051.69;;;6.64;73.51
79465;BME280;68932;47.410;8.232;2023-04-08T03:07:58;97051.47;;;6.65;73.39
79465;BME280;68932;47.410;8.232;2023-04-08T03:10:25;97052.14;;;6.65;73.50
79465;BME280;68932;47.410;8.232;2023-04-08T03:12:52;97051.14;;;6.65;73.41
79465;BME280;68932;47.410;8.232;2023-04-08T03:15:20;97052.50;;;6.65;73.66
79465;BME280;68932;47.410;8.232;2023-04-08T03:17:46;97054.05;;;6.66;73.69
79465;BME280;68932;47.410;8.232;2023-04-08T03:20:13;97054.20;;;6.66;73.71
79465;BME280;68932;47.410;8.232;2023-04-08T03:22:40;97055.30;;;6.69;73.64
79465;BME280;68932;47.410;8.232;2023-04-08T03:25:09;97058.39;;;6.69;73.74
79465;BME280;68932;47.410;8.232;2023-04-08T03:27:36;97053.00;;;6.69;73.82
79465;BME280;68932;47.410;8.232;2023-04-08T03:30:04;97049.25;;;6.71;73.74
79465;BME280;68932;47.410;8.232;2023-04-08T03:32:32;97054.00;;;6.74;73.60
79465;BME280;68932;47.410;8.232;2023-04-08T03:34:59;97054.75;;;6.73;73.55
79465;BME280;68932;47.410;8.232;2023-04-08T03:37:26;97052.58;;;6.71;73.45
79465;BME280;68932;47.410;8.232;2023-04-08T03:39:54;97056.33;;;6.69;73.41
79465;BME280;68932;47.410;8.232;2023-04-08T03:42:22;97059.94;;;6.66;73.26
79465;BME280;68932;47.410;8.232;2023-04-08T03:44:49;97059.52;;;6.61;73.02
79465;BME280;68932;47.410;8.232;2023-04-08T03:47:15;97061.59;;;6.54;72.96
79465;BME280;68932;47.410;8.232;2023-04-08T03:49:42;97057.05;;;6.47;72.98
79465;BME280;68932;47.410;8.232;2023-04-08T03:52:09;97056.98;;;6.41;72.75
79465;BME280;68932;47.410;8.232;2023-04-08T03:54:36;97059.02;;;6.34;72.60
79465;BME280;68932;47.410;8.232;2023-04-08T03:57:03;97058.94;;;6.29;72.21
79465;BME280;68932;47.410;8.232;2023-04-08T03:59:30;97059.21;;;6.23;72.25
79465;BME280;68932;47.410;8.232;2023-04-08T04:01:57;97059.77;;;6.18;72.11
79465;BME280;68932;47.410;8.232;2023-04-08T04:04:24;97057.89;;;6.14;72.00
79465;BME280;68932;47.410;8.232;2023-04-08T04:06:51;97059.34;;;6.09;71.78
79465;BME280;68932;47.410;8.232;2023-04-08T04:09:18;97056.52;;;6.03;71.44
79465;BME280;68932;47.410;8.232;2023-04-08T04:11:45;97054.23;;;5.95;71.31
79465;BME280;68932;47.410;8.232;2023-04-08T04:14:12;97058.77;;;5.87;71.27
79465;BME280;68932;47.410;8.232;2023-04-08T04:16:39;97055.95;;;5.80;71.42
79465;BME280;68932;47.410;8.232;2023-04-08T04:19:06;97058.19;;;5.73;71.63
79465;BME280;68932;47.410;8.232;2023-04-08T04:21:33;97054.45;;;5.67;71.63
79465;BME280;68932;47.410;8.232;2023-04-08T04:24:00;97056.79;;;5.61;72.03
79465;BME280;68932;47.410;8.232;2023-04-08T04:26:27;97054.11;;;5.59;72.41
79465;BME280;68932;47.410;8.232;2023-04-08T04:28:54;97056.80;;;5.61;72.71
79465;BME280;68932;47.410;8.232;2023-04-08T04:31:22;97054.65;;;5.63;73.14
79465;BME280;68932;47.410;8.232;2023-04-08T04:33:50;97057.61;;;5.63;73.27
79465;BME280;68932;47.410;8.232;2023-04-08T04:36:18;97059.39;;;5.65;73.61
79465;BME280;68932;47.410;8.232;2023-04-08T04:38:45;97057.81;;;5.66;73.70
79465;BME280;68932;47.410;8.232;2023-04-08T04:41:12;97063.48;;;5.67;73.82
79465;BME280;68932;47.410;8.232;2023-04-08T04:43:39;97062.70;;;5.69;73.97
79465;BME280;68932;47.410;8.232;2023-04-08T04:46:06;97065.58;;;5.71;74.15
79465;BME280;68932;47.410;8.232;2023-04-08T04:48:32;97066.20;;;5.73;74.54
79465;BME280;68932;47.410;8.232;2023-04-08T04:51:00;97068.09;;;5.77;74.35
79465;BME280;68932;47.410;8.232;2023-04-08T04:53:28;97070.46;;;5.78;74.37
79465;BME280;68932;47.410;8.232;2023-04-08T04:55:55;97075.98;;;5.79;74.62
79465;BME280;68932;47.410;8.232;2023-04-08T04:58:21;97079.19;;;5.82;74.42
79465;BME280;68932;47.410;8.232;2023-04-08T05:00:49;97081.46;;;5.85;74.50
79465;BME280;68932;47.410;8.232;2023-04-08T05:03:15;97088.98;;;5.88;74.49
79465;BME280;68932;47.410;8.232;2023-04-08T05:05:42;97091.45;;;5.91;74.50
79465;BME280;68932;47.410;8.232;2023-04-08T05:08:09;97094.89;;;5.92;74.53
79465;BME280;68932;47.410;8.232;2023-04-08T05:10:36;97097.56;;;5.90;74.38
79465;BME280;68932;47.410;8.232;2023-04-08T05:13:03;97100.22;;;5.89;74.35
79465;BME280;68932;47.410;8.232;2023-04-08T05:15:30;97105.98;;;5.89;74.29
79465;BME280;68932;47.410;8.232;2023-04-08T05:17:57;97105.36;;;5.87;74.45
79465;BME280;68932;47.410;8.232;2023-04-08T05:20:25;97104.02;;;5.86;74.49
79465;BME280;68932;47.410;8.232;2023-04-08T05:22:52;97100.00;;;5.87;74.51
79465;BME280;68932;47.410;8.232;2023-04-08T05:25:19;97099.44;;;5.88;74.84
79465;BME280;68932;47.410;8.232;2023-04-08T05:27:45;97100.66;;;5.91;74.87
79465;BME280;68932;47.410;8.232;2023-04-08T05:30:13;97102.46;;;5.94;74.76
79465;BME280;68932;47.410;8.232;2023-04-08T05:32:40;97104.25;;;5.97;74.63
79465;BME280;68932;47.410;8.232;2023-04-08T05:35:09;97111.50;;;6.02;74.71
79465;BME280;68932;47.410;8.232;2023-04-08T05:37:35;97114.63;;;6.07;74.68
79465;BME280;68932;47.410;8.232;2023-04-08T05:40:03;97114.24;;;6.11;74.73
79465;BME280;68932;47.410;8.232;2023-04-08T05:42:30;97113.02;;;6.15;74.60
79465;BME280;68932;47.410;8.232;2023-04-08T05:44:58;97111.84;;;6.18;74.58
79465;BME280;68932;47.410;8.232;2023-04-08T05:47:25;97115.41;;;6.20;74.73
79465;BME280;68932;47.410;8.232;2023-04-08T05:49:52;97116.30;;;6.23;74.62
79465;BME280;68932;47.410;8.232;2023-04-08T05:52:20;97120.30;;;6.27;74.56
79465;BME280;68932;47.410;8.232;2023-04-08T05:54:46;97126.10;;;6.29;74.60
79465;BME280;68932;47.410;8.232;2023-04-08T05:57:14;97125.95;;;6.29;74.57
79465;BME280;68932;47.410;8.232;2023-04-08T05:59:41;97127.91;;;6.28;74.58
79465;BME280;68932;47.410;8.232;2023-04-08T06:02:08;97131.41;;;6.24;74.57
79465;BME280;68932;47.410;8.232;2023-04-08T06:04:35;97137.13;;;6.20;74.43
79465;BME280;68932;47.410;8.232;2023-04-08T06:07:02;97138.19;;;6.20;74.47
79465;BME280;68932;47.410;8.232;2023-04-08T06:09:29;97143.33;;;6.18;74.58
79465;BME280;68932;47.410;8.232;2023-04-08T06:11:56;97144.89;;;6.18;74.53
79465;BME280;68932;47.410;8.232;2023-04-08T06:14:23;97144.09;;;6.21;74.73
79465;BME280;68932;47.410;8.232;2023-04-08T06:16:50;97141.84;;;6.24;74.63
79465;BME280;68932;47.410;8.232;2023-04-08T06:19:17;97145.20;;;6.26;74.54
79465;BME280;68932;47.410;8.232;2023-04-08T06:21:44;97151.81;;;6.27;74.49
79465;BME280;68932;47.410;8.232;2023-04-08T06:24:11;97151.16;;;6.30;74.46
79465;BME280;68932;47.410;8.232;2023-04-08T06:26:38;97149.33;;;6.32;74.53
79465;BME280;68932;47.410;8.232;2023-04-08T06:29:05;97152.71;;;6.34;74.32
79465;BME280;68932;47.410;8.232;2023-04-08T06:31:32;97148.13;;;6.39;74.50
79465;BME280;68932;47.410;8.232;2023-04-08T06:33:59;97149.48;;;6.48;74.58
79465;BME280;68932;47.410;8.232;2023-04-08T06:36:26;97150.39;;;6.54;74.53
79465;BME280;68932;47.410;8.232;2023-04-08T06:38:52;97152.10;;;6.58;74.50
79465;BME280;68932;47.410;8.232;2023-04-08T06:41:20;97150.31;;;6.63;74.41
79465;BME280;68932;47.410;8.232;2023-04-08T06:43:47;97149.11;;;6.66;74.44
79465;BME280;68932;47.410;8.232;2023-04-08T06:46:13;97147.92;;;6.69;74.16
79465;BME280;68932;47.410;8.232;2023-04-08T06:48:40;97146.71;;;6.73;74.28
79465;BME280;68932;47.410;8.232;2023-04-08T06:51:07;97145.85;;;6.76;74.38
79465;BME280;68932;47.410;8.232;2023-04-08T06:53:34;97146.74;;;6.79;74.24
79465;BME280;68932;47.410;8.232;2023-04-08T06:56:01;97146.23;;;6.83;74.20
79465;BME280;68932;47.410;8.232;2023-04-08T06:58:28;97148.73;;;6.89;74.09
79465;BME280;68932;47.410;8.232;2023-04-08T07:00:55;97149.31;;;6.95;73.90
79465;BME280;68932;47.410;8.232;2023-04-08T07:03:22;97153.59;;;7.04;73.88
79465;BME280;68932;47.410;8.232;2023-04-08T07:05:49;97152.16;;;7.12;73.89
79465;BME280;68932;47.410;8.232;2023-04-08T07:08:16;97156.05;;;7.21;73.74
79465;BME280;68932;47.410;8.232;2023-04-08T07:10:44;97156.23;;;7.32;73.70
79465;BME280;68932;47.410;8.232;2023-04-08T07:13:10;97155.97;;;7.44;73.59
79465;BME280;68932;47.410;8.232;2023-04-08T07:15:38;97157.12;;;7.55;73.39
79465;BME280;68932;47.410;8.232;2023-04-08T07:18:05;97153.95;;;7.64;73.18
79465;BME280;68932;47.410;8.232;2023-04-08T07:20:31;97154.80;;;7.70;72.82
79465;BME280;68932;47.410;8.232;2023-04-08T07:22:58;97157.05;;;7.78;72.78
79465;BME280;68932;47.410;8.232;2023-04-08T07:25:25;97160.98;;;7.83;72.51
79465;BME280;68932;47.410;8.232;2023-04-08T07:27:52;97162.13;;;7.87;72.13
79465;BME280;68932;47.410;8.232;2023-04-08T07:30:19;97161.23;;;7.91;72.21
79465;BME280;68932;47.410;8.232;2023-04-08T07:32:46;97162.48;;;7.97;72.22
79465;BME280;68932;47.410;8.232;2023-04-08T07:35:13;97164.12;;;8.06;72.08
79465;BME280;68932;47.410;8.232;2023-04-08T07:37:40;97163.46;;;8.15;71.89
79465;BME280;68932;47.410;8.232;2023-04-08T07:40:09;97164.42;;;8.24;71.55
79465;BME280;68932;47.410;8.232;2023-04-08T07:42:36;97163.98;;;8.32;71.58
79465;BME280;68932;47.410;8.232;2023-04-08T07:45:05;97168.74;;;8.41;71.18
79465;BME280;68932;47.410;8.232;2023-04-08T07:47:32;97167.63;;;8.49;71.03
79465;BME280;68932;47.410;8.232;2023-04-08T07:49:59;97170.10;;;8.58;70.88
79465;BME280;68932;47.410;8.232;2023-04-08T07:52:26;97171.15;;;8.64;70.55
79465;BME280;68932;47.410;8.232;2023-04-08T07:54:53;97173.92;;;8.71;70.80
79465;BME280;68932;47.410;8.232;2023-04-08T07:57:20;97172.84;;;8.78;70.54
79465;BME280;68932;47.410;8.232;2023-04-08T07:59:46;97176.55;;;8.84;70.21
79465;BME280;68932;47.410;8.232;2023-04-08T08:02:13;97178.43;;;8.88;70.52
79465;BME280;68932;47.410;8.232;2023-04-08T08:04:40;97178.73;;;8.92;69.99
79465;BME280;68932;47.410;8.232;2023-04-08T08:07:07;97179.28;;;8.94;69.46
79465;BME280;68932;47.410;8.232;2023-04-08T08:09:34;97182.58;;;8.98;69.67
79465;BME280;68932;47.410;8.232;2023-04-08T08:12:01;97181.66;;;9.02;70.17
79465;BME280;68932;47.410;8.232;2023-04-08T08:14:28;97183.70;;;9.06;69.86
79465;BME280;68932;47.410;8.232;2023-04-08T08:16:54;97185.92;;;9.10;69.90
79465;BME280;68932;47.410;8.232;2023-04-08T08:19:21;97184.09;;;9.14;69.71
79465;BME280;68932;47.410;8.232;2023-04-08T08:21:48;97189.20;;;9.20;69.85
79465;BME280;68932;47.410;8.232;2023-04-08T08:24:16;97191.36;;;9.26;69.72
79465;BME280;68932;47.410;8.232;2023-04-08T08:26:43;97196.28;;;9.28;69.52
79465;BME280;68932;47.410;8.232;2023-04-08T08:29:10;97196.85;;;9.30;69.00
79465;BME280;68932;47.410;8.232;2023-04-08T08:31:37;97202.06;;;9.31;68.44
79465;BME280;68932;47.410;8.232;2023-04-08T08:34:04;97198.73;;;9.31;68.48
79465;BME280;68932;47.410;8.232;2023-04-08T08:36:31;97201.17;;;9.31;68.29
79465;BME280;68932;47.410;8.232;2023-04-08T08:38:58;97199.54;;;9.32;68.65
79465;BME280;68932;47.410;8.232;2023-04-08T08:41:24;97202.38;;;9.34;68.75
79465;BME280;68932;47.410;8.232;2023-04-08T08:43:52;97199.86;;;9.42;68.67
79465;BME280;68932;47.410;8.232;2023-04-08T08:46:19;97203.20;;;9.51;68.52
79465;BME280;68932;47.410;8.232;2023-04-08T08:48:46;97207.97;;;9.59;67.93
79465;BME280;68932;47.410;8.232;2023-04-08T08:51:13;97209.86;;;9.66;67.33
79465;BME280;68932;47.410;8.232;2023-04-08T08:53:40;97204.65;;;9.68;66.68
79465;BME280;68932;47.410;8.232;2023-04-08T08:56:09;97206.94;;;9.74;66.26
79465;BME280;68932;47.410;8.232;2023-04-08T08:58:36;97205.72;;;9.77;65.77
79465;BME280;68932;47.410;8.232;2023-04-08T09:01:03;97203.04;;;9.81;65.70
79465;BME280;68932;47.410;8.232;2023-04-08T09:04:07;97201.61;;;9.84;65.12
79465;BME280;68932;47.410;8.232;2023-04-08T09:06:34;97208.50;;;9.83;64.98
79465;BME280;68932;47.410;8.232;2023-04-08T09:09:00;97206.95;;;9.85;65.30
79465;BME280;68932;47.410;8.232;2023-04-08T09:11:28;97208.31;;;9.89;65.56
79465;BME280;68932;47.410;8.232;2023-04-08T09:13:57;97209.58;;;9.97;65.83
79465;BME280;68932;47.410;8.232;2023-04-08T09:16:24;97208.48;;;10.07;65.72
79465;BME280;68932;47.410;8.232;2023-04-08T09:18:51;97210.50;;;10.17;65.74
79465;BME280;68932;47.410;8.232;2023-04-08T09:21:18;97210.31;;;10.29;65.85
79465;BME280;68932;47.410;8.232;2023-04-08T09:23:49;97209.64;;;10.40;65.24
79465;BME280;68932;47.410;8.232;2023-04-08T09:26:18;97206.15;;;10.49;64.59
79465;BME280;68932;47.410;8.232;2023-04-08T09:28:59;97208.60;;;10.54;64.77
79465;BME280;68932;47.410;8.232;2023-04-08T09:31:28;97203.73;;;10.59;65.23
79465;BME280;68932;47.410;8.232;2023-04-08T09:33:56;97206.73;;;10.65;65.20
79465;BME280;68932;47.410;8.232;2023-04-08T09:36:24;97209.60;;;10.72;64.71
79465;BME280;68932;47.410;8.232;2023-04-08T09:38:52;97209.28;;;10.80;64.33
79465;BME280;68932;47.410;8.232;2023-04-08T09:41:19;97207.62;;;10.90;64.25
79465;BME280;68932;47.410;8.232;2023-04-08T09:43:48;97206.35;;;10.96;63.76
79465;BME280;68932;47.410;8.232;2023-04-08T09:46:17;97202.41;;;10.97;63.33
79465;BME280;68932;47.410;8.232;2023-04-08T09:48:49;97205.83;;;10.96;62.94
79465;BME280;68932;47.410;8.232;2023-04-08T09:51:22;97204.92;;;10.91;62.38
79465;BME280;68932;47.410;8.232;2023-04-08T09:53:56;97204.84;;;10.84;62.13
79465;BME280;68932;47.410;8.232;2023-04-08T09:56:26;97206.22;;;10.84;62.91
79465;BME280;68932;47.410;8.232;2023-04-08T09:58:58;97204.73;;;10.91;63.20
79465;BME280;68932;47.410;8.232;2023-04-08T10:01:34;97209.34;;;11.01;62.90
79465;BME280;68932;47.410;8.232;2023-04-08T10:04:06;97208.78;;;11.15;63.18
79465;BME280;68932;47.410;8.232;2023-04-08T10:06:34;97207.36;;;11.32;62.77
79465;BME280;68932;47.410;8.232;2023-04-08T10:09:03;97208.88;;;11.49;61.99
79465;BME280;68932;47.410;8.232;2023-04-08T10:11:30;97211.31;;;11.60;62.17
79465;BME280;68932;47.410;8.232;2023-04-08T10:13:58;97209.88;;;11.71;61.61
79465;BME280;68932;47.410;8.232;2023-04-08T10:16:25;97210.64;;;11.76;60.69
79465;BME280;68932;47.410;8.232;2023-04-08T10:18:52;97208.05;;;11.83;60.40
79465;BME280;68932;47.410;8.232;2023-04-08T10:21:34;97205.65;;;11.98;59.19
79465;BME280;68932;47.410;8.232;2023-04-08T10:24:01;97207.82;;;12.13;58.16
79465;BME280;68932;47.410;8.232;2023-04-08T10:26:33;97210.16;;;12.27;58.16
79465;BME280;68932;47.410;8.232;2023-04-08T10:29:33;97201.71;;;12.43;57.82
79465;BME280;68932;47.410;8.232;2023-04-08T10:32:00;97197.27;;;12.59;57.32
79465;BME280;68932;47.410;8.232;2023-04-08T10:34:27;97192.32;;;12.74;56.53
79465;BME280;68932;47.410;8.232;2023-04-08T10:36:56;97193.70;;;12.94;57.39
79465;BME280;68932;47.410;8.232;2023-04-08T10:39:24;97188.67;;;13.12;56.01
79465;BME280;68932;47.410;8.232;2023-04-08T10:41:51;97191.21;;;13.24;55.66
79465;BME280;68932;47.410;8.232;2023-04-08T10:44:20;97188.27;;;13.26;56.36
79465;BME280;68932;47.410;8.232;2023-04-08T10:46:48;97191.56;;;13.26;56.02
79465;BME280;68932;47.410;8.232;2023-04-08T10:49:15;97188.40;;;13.21;55.93
79465;BME280;68932;47.410;8.232;2023-04-08T10:51:43;97186.64;;;13.14;55.54
79465;BME280;68932;47.410;8.232;2023-04-08T10:54:12;97186.08;;;13.00;54.17
79465;BME280;68932;47.410;8.232;2023-04-08T10:56:44;97182.16;;;12.81;53.75
79465;BME280;68932;47.410;8.232;2023-04-08T10:59:13;97178.37;;;12.69;54.70
79465;BME280;68932;47.410;8.232;2023-04-08T11:01:40;97178.48;;;12.71;55.62
79465;BME280;68932;47.410;8.232;2023-04-08T11:04:12;97178.65;;;12.78;55.84
79465;BME280;68932;47.410;8.232;2023-04-08T11:06:41;97176.34;;;12.84;55.14
79465;BME280;68932;47.410;8.232;2023-04-08T11:09:09;97177.27;;;12.85;55.80
79465;BME280;68932;47.410;8.232;2023-04-08T11:11:36;97177.79;;;12.86;55.36
79465;BME280;68932;47.410;8.232;2023-04-08T11:14:03;97178.20;;;12.87;55.25
79465;BME280;68932;47.410;8.232;2023-04-08T11:16:31;97177.40;;;12.89;54.82
79465;BME280;68932;47.410;8.232;2023-04-08T11:18:58;97177.42;;;12.86;54.72
79465;BME280;68932;47.410;8.232;2023-04-08T11:21:25;97174.70;;;12.84;55.02
79465;BME280;68932;47.410;8.232;2023-04-08T11:23:52;97178.25;;;12.84;54.63
79465;BME280;68932;47.410;8.232;2023-04-08T11:26:20;97177.23;;;12.83;54.77
79465;BME280;68932;47.410;8.232;2023-04-08T11:28:48;97170.04;;;12.83;54.92
79465;BME280;68932;47.410;8.232;2023-04-08T11:31:15;97170.74;;;12.81;54.99
79465;BME280;68932;47.410;8.232;2023-04-08T11:33:48;97170.09;;;12.75;54.23
79465;BME280;68932;47.410;8.232;2023-04-08T11:36:14;97168.66;;;12.77;53.81
79465;BME280;68932;47.410;8.232;2023-04-08T11:38:43;97166.76;;;12.87;54.19
79465;BME280;68932;47.410;8.232;2023-04-08T11:41:10;97170.97;;;12.92;52.47
79465;BME280;68932;47.410;8.232;2023-04-08T11:43:37;97168.84;;;12.83;51.86
79465;BME280;68932;47.410;8.232;2023-04-08T11:46:09;97165.55;;;12.77;52.57
79465;BME280;68932;47.410;8.232;2023-04-08T11:48:36;97164.89;;;12.81;52.38
79465;BME280;68932;47.410;8.232;2023-04-08T11:51:04;97164.48;;;12.82;50.03
79465;BME280;68932;47.410;8.232;2023-04-08T11:53:32;97167.20;;;12.83;50.49
79465;BME280;68932;47.410;8.232;2023-04-08T11:56:15;97166.19;;;12.88;50.27
79465;BME280;68932;47.410;8.232;2023-04-08T11:58:42;97162.85;;;12.95;50.75
79465;BME280;68932;47.410;8.232;2023-04-08T12:01:09;97161.98;;;13.02;50.25
79465;BME280;68932;47.410;8.232;2023-04-08T12:03:36;97165.41;;;13.01;50.04
79465;BME280;68932;47.410;8.232;2023-04-08T12:06:03;97169.85;;;12.86;49.82
79465;BME280;68932;47.410;8.232;2023-04-08T12:08:30;97170.40;;;12.65;50.56
79465;BME280;68932;47.410;8.232;2023-04-08T12:10:57;97176.11;;;12.42;52.39
79465;BME280;68932;47.410;8.232;2023-04-08T12:13:24;97180.77;;;12.20;53.87
79465;BME280;68932;47.410;8.232;2023-04-08T12:15:51;97182.73;;;11.97;54.36
79465;BME280;68932;47.410;8.232;2023-04-08T12:18:18;97181.42;;;11.71;55.38
79465;BME280;68932;47.410;8.232;2023-04-08T12:20:45;97180.73;;;11.50;56.19
79465;BME280;68932;47.410;8.232;2023-04-08T12:23:12;97178.61;;;11.29;57.23
79465;BME280;68932;47.410;8.232;2023-04-08T12:25:39;97181.09;;;11.12;57.82
79465;BME280;68932;47.410;8.232;2023-04-08T12:28:06;97188.11;;;11.01;58.37
79465;BME280;68932;47.410;8.232;2023-04-08T12:30:32;97181.25;;;10.91;58.73
79465;BME280;68932;47.410;8.232;2023-04-08T12:33:00;97183.92;;;10.82;58.68
79465;BME280;68932;47.410;8.232;2023-04-08T12:35:27;97187.94;;;10.71;58.62
79465;BME280;68932;47.410;8.232;2023-04-08T12:37:54;97184.41;;;10.63;58.90
79465;BME280;68932;47.410;8.232;2023-04-08T12:40:20;97182.36;;;10.59;59.16
79465;BME280;68932;47.410;8.232;2023-04-08T12:42:47;97178.75;;;10.61;59.21
79465;BME280;68932;47.410;8.232;2023-04-08T12:45:14;97178.30;;;10.65;59.27
79465;BME280;68932;47.410;8.232;2023-04-08T12:47:41;97176.86;;;10.68;59.32
79465;BME280;68932;47.410;8.232;2023-04-08T12:50:09;97179.27;;;10.69;59.26
79465;BME280;68932;47.410;8.232;2023-04-08T12:52:37;97179.34;;;10.68;59.64
79465;BME280;68932;47.410;8.232;2023-04-08T12:55:05;97180.85;;;10.67;59.36
79465;BME280;68932;47.410;8.232;2023-04-08T12:57:32;97180.48;;;10.64;59.12
79465;BME280;68932;47.410;8.232;2023-04-08T13:00:00;97181.49;;;10.62;58.97
79465;BME280;68932;47.410;8.232;2023-04-08T13:02:27;97181.20;;;10.64;59.10
79465;BME280;68932;47.410;8.232;2023-04-08T13:04:54;97180.35;;;10.66;59.41
79465;BME280;68932;47.410;8.232;2023-04-08T13:07:21;97180.52;;;10.66;58.92
79465;BME280;68932;47.410;8.232;2023-04-08T13:09:47;97177.13;;;10.64;58.87